createdAt,value
2022-12-24T00:01:43.138Z,99703.41
2022-12-24T00:04:15.122Z,99703.00
2022-12-24T00:06:47.304Z,99709.91
2022-12-24T00:09:19.417Z,99703.19
2022-12-24T00:11:50.982Z,99711.16
2022-12-24T00:14:22.797Z,99703.81
2022-12-24T00:16:54.334Z,99705.25
2022-12-24T00:19:26.066Z,99705.84
2022-12-24T00:21:57.592Z,99709.53
2022-12-24T00:24:29.444Z,99705.94
2022-12-24T00:27:01.044Z,99710.41
2022-12-24T00:29:33.133Z,99711.22
2022-12-24T00:32:08.001Z,99716.88
2022-12-24T00:34:39.966Z,99714.47
2022-12-24T00:37:11.460Z,99717.06
2022-12-24T00:39:43.275Z,99718.50
2022-12-24T00:42:14.802Z,99711.63
2022-12-24T00:44:46.675Z,99712.25
2022-12-24T00:47:18.190Z,99715.31
2022-12-24T00:49:50.190Z,99720.41
2022-12-24T00:52:21.720Z,99731.97
2022-12-24T00:54:54.908Z,99730.56
2022-12-24T00:57:26.405Z,99735.25
2022-12-24T00:59:58.395Z,99738.06
2022-12-24T01:02:30.123Z,99747.63
2022-12-24T01:05:11.335Z,99743.34
2022-12-24T01:07:43.999Z,99743.97
2022-12-24T01:10:16.130Z,99739.09
2022-12-24T01:12:47.650Z,99753.94
2022-12-24T01:15:19.452Z,99749.44
2022-12-24T01:17:50.960Z,99753.50
2022-12-24T01:20:22.909Z,99755.56
2022-12-24T01:22:57.301Z,99752.69
2022-12-24T01:25:29.088Z,99760.03
2022-12-24T01:28:00.987Z,99754.53
2022-12-24T01:30:32.900Z,99754.94
2022-12-24T01:33:04.823Z,99758.63
2022-12-24T01:35:36.355Z,99761.25
2022-12-24T01:38:08.000Z,99758.44
2022-12-24T01:40:58.228Z,99758.00
2022-12-24T01:43:30.154Z,99766.97
2022-12-24T01:46:01.722Z,99769.00
2022-12-24T01:48:33.696Z,99771.84
2022-12-24T01:51:05.240Z,99780.38
2022-12-24T01:53:37.069Z,99779.34
2022-12-24T01:56:08.595Z,99781.34
2022-12-24T01:58:40.080Z,99779.94
2022-12-24T02:01:11.768Z,99786.44
2022-12-24T02:03:43.642Z,99791.13
2022-12-24T02:06:18.197Z,99792.94
2022-12-24T02:08:49.728Z,99793.75
2022-12-24T02:11:21.203Z,99805.53
2022-12-24T02:13:53.165Z,99817.34
2022-12-24T02:16:24.715Z,99821.41
2022-12-24T02:18:56.582Z,99824.84
2022-12-24T02:21:28.082Z,99826.69
2022-12-24T02:23:59.914Z,99832.59
2022-12-24T02:26:31.401Z,99827.25
2022-12-24T02:29:03.354Z,99838.88
2022-12-24T02:31:34.926Z,99835.00
2022-12-24T02:34:06.849Z,99843.94
2022-12-24T02:36:38.368Z,99840.50
2022-12-24T02:39:10.460Z,99847.22
2022-12-24T02:42:00.932Z,99845.97
2022-12-24T02:44:32.839Z,99859.63
2022-12-24T02:47:04.424Z,99860.81
2022-12-24T02:49:36.191Z,99862.88
2022-12-24T02:52:07.719Z,99866.53
2022-12-24T02:54:39.543Z,99866.31
2022-12-24T02:57:11.058Z,99882.19
2022-12-24T02:59:42.874Z,99876.09
2022-12-24T03:02:14.477Z,99870.38
2022-12-24T03:04:46.395Z,99872.22
2022-12-24T03:07:17.952Z,99873.84
2022-12-24T03:09:49.766Z,99883.63
2022-12-24T03:12:21.255Z,99885.25
2022-12-24T03:14:53.038Z,99887.28
2022-12-24T03:17:24.584Z,99882.41
2022-12-24T03:19:56.682Z,99889.13
2022-12-24T03:22:28.264Z,99892.56
2022-12-24T03:25:00.250Z,99892.78
2022-12-24T03:27:32.348Z,99894.19
2022-12-24T03:30:04.182Z,99898.66
2022-12-24T03:32:35.646Z,99894.78
2022-12-24T03:35:07.475Z,99910.66
2022-12-24T03:37:39.032Z,99908.41
2022-12-24T03:40:10.922Z,99913.28
2022-12-24T03:42:42.459Z,99923.47
2022-12-24T03:45:14.501Z,99925.72
2022-12-24T03:47:46.031Z,99935.88
2022-12-24T03:50:17.886Z,99936.91
2022-12-24T03:52:49.363Z,99934.88
2022-12-24T03:55:21.348Z,99941.97
2022-12-24T03:57:52.887Z,99944.63
2022-12-24T04:00:24.744Z,99935.47
2022-12-24T04:02:56.276Z,99935.28
2022-12-24T04:05:28.127Z,99938.31
2022-12-24T04:07:59.617Z,99946.28
2022-12-24T04:10:31.415Z,99949.13
2022-12-24T04:13:02.985Z,99948.91
2022-12-24T04:15:34.911Z,99954.81
2022-12-24T04:18:06.817Z,99952.56
2022-12-24T04:20:38.334Z,99936.50
2022-12-24T04:23:10.128Z,99947.50
2022-12-24T04:25:42.009Z,99956.22
2022-12-24T04:28:13.526Z,99951.53
2022-12-24T04:30:45.541Z,99970.25
2022-12-24T04:33:17.086Z,99970.69
2022-12-24T04:35:48.896Z,99981.03
2022-12-24T04:38:20.438Z,99982.88
2022-12-24T04:40:52.005Z,99988.97
2022-12-24T04:43:23.524Z,99988.16
2022-12-24T04:45:55.410Z,100007.06
2022-12-24T04:48:26.953Z,100008.09
2022-12-24T04:50:58.871Z,100003.59
2022-12-24T04:53:30.421Z,100004.22
2022-12-24T04:56:02.297Z,100005.66
2022-12-24T04:58:33.821Z,100003.03
2022-12-24T05:01:05.743Z,100007.88
2022-12-24T05:03:37.415Z,100011.13
2022-12-24T05:06:09.360Z,100009.72
2022-12-24T05:08:41.023Z,100019.47
2022-12-24T05:11:15.979Z,100017.63
2022-12-24T05:13:48.205Z,100002.38
2022-12-24T05:16:20.345Z,100006.25
2022-12-24T05:18:51.966Z,100013.78
2022-12-24T05:21:23.944Z,100014.19
2022-12-24T05:24:14.461Z,100011.75
2022-12-24T05:26:45.991Z,100018.66
2022-12-24T05:29:17.915Z,100021.31
2022-12-24T05:31:49.435Z,100029.03
2022-12-24T05:34:21.312Z,100021.91
2022-12-24T05:36:52.866Z,100015.81
2022-12-24T05:39:24.638Z,100012.97
2022-12-24T05:41:56.175Z,100018.06
2022-12-24T05:44:28.095Z,100024.34
2022-12-24T05:46:59.619Z,100033.09
2022-12-24T05:49:32.067Z,100034.31
2022-12-24T05:52:03.661Z,100040.84
2022-12-24T05:54:35.473Z,100054.47
2022-12-24T05:57:07.023Z,100052.81
2022-12-24T05:59:38.861Z,100053.22
2022-12-24T06:02:10.399Z,100058.94
2022-12-24T06:04:42.350Z,100057.31
2022-12-24T06:07:14.035Z,100054.84
2022-12-24T06:09:45.971Z,100057.50
2022-12-24T06:12:17.503Z,100061.56
2022-12-24T06:14:49.333Z,100068.28
2022-12-24T06:17:20.852Z,100067.88
2022-12-24T06:19:52.766Z,100075.19
2022-12-24T06:22:24.272Z,100071.53
2022-12-24T06:24:56.134Z,100072.75
2022-12-24T06:27:27.669Z,100079.06
2022-12-24T06:29:59.573Z,100081.31
2022-12-24T06:32:31.071Z,100087.81
2022-12-24T06:35:02.899Z,100082.72
2022-12-24T06:37:34.459Z,100089.22
2022-12-24T06:40:06.618Z,100095.13
2022-12-24T06:42:38.135Z,100096.16
2022-12-24T06:45:10.000Z,100088.41
2022-12-24T06:47:41.530Z,100082.94
2022-12-24T06:50:13.384Z,100096.94
2022-12-24T06:52:44.917Z,100099.78
2022-12-24T06:55:16.977Z,100104.47
2022-12-24T06:57:48.491Z,100107.34
2022-12-24T07:00:22.239Z,100118.72
2022-12-24T07:02:53.834Z,100130.31
2022-12-24T07:05:25.786Z,100130.09
2022-12-24T07:07:57.360Z,99949.75
2022-12-24T07:10:28.941Z,100128.06
2022-12-24T07:13:00.477Z,100130.09
2022-12-24T07:15:32.333Z,100143.34
2022-12-24T07:18:03.915Z,100141.09
2022-12-24T07:20:35.856Z,100146.59
2022-12-24T07:23:07.383Z,100153.31
2022-12-24T07:25:39.299Z,100157.78
2022-12-24T07:28:10.819Z,100162.88
2022-12-24T07:30:42.646Z,100172.88
2022-12-24T07:33:14.174Z,100179.59
2022-12-24T07:35:49.594Z,100171.66
2022-12-24T07:38:23.765Z,100167.59
2022-12-24T07:40:55.635Z,100180.19
2022-12-24T07:43:27.214Z,100175.72
2022-12-24T07:45:59.075Z,100179.19
2022-12-24T07:48:30.616Z,100192.81
2022-12-24T07:51:02.483Z,100188.75
2022-12-24T07:53:34.000Z,100193.84
2022-12-24T07:56:12.245Z,100203.41
2022-12-24T07:58:44.376Z,100196.50
2022-12-24T08:01:16.253Z,100205.44
2022-12-24T08:03:47.886Z,100201.19
2022-12-24T08:06:19.688Z,100200.16
2022-12-24T08:08:51.229Z,100192.81
2022-12-24T08:11:23.150Z,100197.72
2022-12-24T08:13:54.687Z,100197.91
2022-12-24T08:16:26.565Z,100205.25
2022-12-24T08:18:58.074Z,100202.19
2022-12-24T08:21:29.909Z,100203.41
2022-12-24T08:24:01.455Z,100210.72
2022-12-24T08:26:33.394Z,100208.50
2022-12-24T08:29:04.909Z,100218.47
2022-12-24T08:31:37.295Z,100214.81
2022-12-24T08:34:09.079Z,100220.09
2022-12-24T08:36:40.931Z,100223.38
2022-12-24T08:39:12.463Z,100223.16
2022-12-24T08:41:44.284Z,100222.56
2022-12-24T08:44:15.807Z,100223.38
2022-12-24T08:46:47.699Z,100228.03
2022-12-24T08:49:19.220Z,100235.38
2022-12-24T08:51:51.228Z,100233.38
2022-12-24T08:54:23.625Z,100235.81
2022-12-24T08:56:55.492Z,100236.25
2022-12-24T08:59:27.032Z,100242.97
2022-12-24T09:01:59.074Z,100245.84
2022-12-24T09:04:30.819Z,100278.81
2022-12-24T09:07:02.675Z,100253.56
2022-12-24T09:09:37.925Z,100266.59
2022-12-24T09:12:10.525Z,100258.66
2022-12-24T09:14:42.046Z,100266.81
2022-12-24T09:17:13.610Z,100272.72
2022-12-24T09:19:45.107Z,100274.94
2022-12-24T09:22:16.777Z,100280.84
2022-12-24T09:24:48.471Z,100280.66
2022-12-24T09:27:20.109Z,100286.16
2022-12-24T09:29:51.609Z,100290.22
2022-12-24T09:32:23.143Z,100291.84
2022-12-24T09:34:54.637Z,100293.72
2022-12-24T09:37:26.345Z,100301.66
2022-12-24T09:39:57.905Z,100309.38
2022-12-24T09:42:29.620Z,100313.84
2022-12-24T09:45:01.170Z,100300.44
2022-12-24T09:47:32.714Z,100315.53
2022-12-24T09:50:04.273Z,100320.81
2022-12-24T09:52:36.166Z,100323.66
2022-12-24T09:55:07.982Z,100330.59
2022-12-24T09:57:39.810Z,100335.09
2022-12-24T10:00:11.409Z,100336.72
2022-12-24T10:02:43.497Z,100340.59
2022-12-24T10:05:15.753Z,100343.25
2022-12-24T10:07:47.646Z,100352.22
2022-12-24T10:10:19.164Z,100355.06
2022-12-24T10:12:51.038Z,100351.59
2022-12-24T10:15:22.550Z,100349.75
2022-12-24T10:17:54.564Z,100359.53
2022-12-24T10:20:26.115Z,100369.56
2022-12-24T10:22:57.693Z,100367.31
2022-12-24T10:25:29.276Z,100365.69
2022-12-24T10:28:01.133Z,100375.44
2022-12-24T10:30:32.717Z,100376.25
2022-12-24T10:33:04.585Z,100385.25
2022-12-24T10:35:36.167Z,100390.34
2022-12-24T10:38:08.016Z,100390.75
2022-12-24T10:40:39.909Z,100398.09
2022-12-24T10:43:11.446Z,100389.72
2022-12-24T10:45:42.999Z,100401.31
2022-12-24T10:48:14.546Z,100398.25
2022-12-24T10:50:46.098Z,100401.50
2022-12-24T10:53:17.633Z,100394.91
2022-12-24T10:55:49.485Z,100398.22
2022-12-24T10:58:21.000Z,100399.84
2022-12-24T11:00:52.525Z,100414.94
2022-12-24T11:03:24.166Z,100417.41
2022-12-24T11:05:56.146Z,100416.38
2022-12-24T11:08:27.673Z,100415.75
2022-12-24T11:10:59.664Z,100420.69
2022-12-24T11:13:39.474Z,100414.91
2022-12-24T11:16:11.762Z,100409.78
2022-12-24T11:18:48.738Z,100407.06
2022-12-24T11:21:22.540Z,100429.13
2022-12-24T11:23:54.118Z,100427.94
2022-12-24T11:26:25.810Z,100432.09
2022-12-24T11:28:57.357Z,100417.13
2022-12-24T11:31:33.072Z,100433.59
2022-12-24T11:34:04.651Z,100430.09
2022-12-24T11:36:36.536Z,100435.88
2022-12-24T11:39:08.060Z,100439.22
2022-12-24T11:41:39.930Z,100444.47
2022-12-24T11:44:12.532Z,100445.13
2022-12-24T11:46:52.489Z,100443.69
2022-12-24T11:49:24.129Z,100456.09
2022-12-24T11:51:55.664Z,100464.91
2022-12-24T11:54:27.179Z,100454.25
2022-12-24T11:56:59.070Z,100457.69
2022-12-24T11:59:30.600Z,100459.03
2022-12-24T12:02:02.227Z,100454.13
2022-12-24T12:04:33.829Z,100458.84
2022-12-24T12:07:08.236Z,100461.78
2022-12-24T12:09:44.239Z,100468.50
2022-12-24T12:12:16.108Z,100468.25
2022-12-24T12:14:47.703Z,100472.63
2022-12-24T12:17:19.292Z,100474.81
2022-12-24T12:19:50.799Z,100476.56
2022-12-24T12:22:23.833Z,100476.59
2022-12-24T12:24:55.886Z,100473.06
2022-12-24T12:27:27.643Z,100479.44
2022-12-24T12:29:59.168Z,100489.63
2022-12-24T12:32:31.015Z,100485.28
2022-12-24T12:35:02.666Z,100485.28
2022-12-24T12:37:34.540Z,100487.06
2022-12-24T12:40:06.060Z,100485.09
2022-12-24T12:42:38.192Z,100490.84
2022-12-24T12:45:10.063Z,100494.22
2022-12-24T12:47:41.914Z,100499.16
2022-12-24T12:50:13.464Z,100504.84
2022-12-24T12:52:45.355Z,100511.31
2022-12-24T12:55:23.880Z,100515.63
2022-12-24T12:57:56.497Z,100505.03
2022-12-24T13:00:28.091Z,100509.09
2022-12-24T13:03:00.198Z,100506.00
2022-12-24T13:05:31.876Z,100504.75
2022-12-24T13:08:03.637Z,100502.03
2022-12-24T13:10:35.234Z,100504.91
2022-12-24T13:13:07.130Z,100510.41
2022-12-24T13:15:38.667Z,100512.38
2022-12-24T13:18:10.197Z,100511.94
2022-12-24T13:20:42.118Z,100511.16
2022-12-24T13:23:13.960Z,100516.06
2022-12-24T13:25:45.519Z,100516.06
2022-12-24T13:28:17.470Z,100525.41
2022-12-24T13:30:49.016Z,100521.72
2022-12-24T13:33:20.875Z,100530.50
2022-12-24T13:35:52.393Z,100527.84
2022-12-24T13:38:24.275Z,100535.06
2022-12-24T13:40:55.816Z,100542.00
2022-12-24T13:43:27.667Z,100548.84
2022-12-24T13:45:59.294Z,100544.03
2022-12-24T13:48:31.250Z,100548.13
2022-12-24T13:51:02.846Z,100551.19
2022-12-24T13:53:34.425Z,100572.69
2022-12-24T13:56:05.921Z,100571.22
2022-12-24T13:58:37.498Z,100570.69
2022-12-24T14:01:09.202Z,100575.41
2022-12-24T14:03:40.810Z,100570.75
2022-12-24T14:06:12.386Z,100580.41
2022-12-24T14:08:43.912Z,100580.41
2022-12-24T14:11:15.567Z,100585.50
2022-12-24T14:13:47.458Z,100580.59
2022-12-24T14:16:19.048Z,100590.00
2022-12-24T14:18:50.990Z,100598.63
2022-12-24T14:21:22.523Z,100599.44
2022-12-24T14:23:54.478Z,100596.38
2022-12-24T14:26:26.051Z,100593.53
2022-12-24T14:28:57.629Z,100597.59
2022-12-24T14:31:29.208Z,100599.25
2022-12-24T14:34:01.071Z,100604.34
2022-12-24T14:36:32.574Z,100605.19
2022-12-24T14:39:04.429Z,100614.16
2022-12-24T14:41:36.007Z,100613.38
2022-12-24T14:44:07.805Z,100619.91
2022-12-24T14:46:39.381Z,100621.53
2022-12-24T14:49:11.244Z,100621.91
2022-12-24T14:51:42.783Z,100624.16
2022-12-24T14:54:14.645Z,100624.78
2022-12-24T14:56:46.244Z,100632.53
2022-12-24T14:59:17.779Z,100633.13
2022-12-24T15:01:49.470Z,100639.44
2022-12-24T15:04:21.376Z,100641.91
2022-12-24T15:06:53.151Z,100645.53
2022-12-24T15:09:25.077Z,100652.88
2022-12-24T15:11:56.605Z,100654.50
2022-12-24T15:14:28.603Z,100656.94
2022-12-24T15:17:00.232Z,100668.94
2022-12-24T15:19:32.085Z,100671.97
2022-12-24T15:22:03.577Z,100676.66
2022-12-24T15:24:35.189Z,100674.41
2022-12-24T15:27:07.044Z,100677.63
2022-12-24T15:29:38.766Z,100682.72
2022-12-24T15:32:10.282Z,100686.38
2022-12-24T15:34:41.820Z,100690.84
2022-12-24T15:37:13.388Z,100689.41
2022-12-24T15:39:45.226Z,100684.50
2022-12-24T15:42:18.556Z,100698.97
2022-12-24T15:44:50.433Z,100692.66
2022-12-24T15:47:21.995Z,100695.50
2022-12-24T15:49:54.045Z,100704.91
2022-12-24T15:52:25.590Z,100710.19
2022-12-24T15:54:58.409Z,100708.38
2022-12-24T15:57:30.131Z,100715.72
2022-12-24T16:00:01.702Z,100712.25
2022-12-24T16:02:33.434Z,100717.16
2022-12-24T16:05:05.721Z,100722.06
2022-12-24T16:07:57.704Z,100716.34
2022-12-24T16:10:29.371Z,100731.81
2022-12-24T16:13:01.204Z,100725.94
2022-12-24T16:15:32.794Z,100731.44
2022-12-24T16:18:04.709Z,100738.38
2022-12-24T16:20:36.245Z,100741.66
2022-12-24T16:23:08.105Z,100736.81
2022-12-24T16:25:39.627Z,100744.16
2022-12-24T16:28:14.060Z,100732.34
2022-12-24T16:30:47.770Z,100732.94
2022-12-24T16:33:19.628Z,100742.53
2022-12-24T16:35:51.248Z,100751.09
2022-12-24T16:38:23.165Z,100740.25
2022-12-24T16:40:54.696Z,100737.97
2022-12-24T16:43:45.508Z,100739.41
2022-12-24T16:46:17.092Z,100739.63
2022-12-24T16:48:49.074Z,100748.97
2022-12-24T16:51:20.628Z,100754.03
2022-12-24T16:53:52.523Z,100765.66
2022-12-24T16:56:24.117Z,100588.84
2022-12-24T16:58:55.698Z,100760.56
2022-12-24T17:01:27.299Z,100763.88
2022-12-24T17:03:59.325Z,100765.28
2022-12-24T17:06:31.124Z,100769.16
2022-12-24T17:09:02.948Z,100768.78
2022-12-24T17:11:34.522Z,100768.78
2022-12-24T17:14:08.728Z,100770.59
2022-12-24T17:16:41.523Z,100780.47
2022-12-24T17:19:13.546Z,100782.91
2022-12-24T17:21:45.081Z,100783.31
2022-12-24T17:24:16.956Z,100797.53
2022-12-24T17:26:48.581Z,100797.19
2022-12-24T17:29:20.101Z,100799.63
2022-12-24T17:31:51.881Z,100792.72
2022-12-24T17:34:23.672Z,100806.19
2022-12-24T17:36:55.254Z,100799.69
2022-12-24T17:39:28.119Z,100802.53
2022-12-24T17:41:59.762Z,100800.25
2022-12-24T17:44:31.310Z,100810.03
2022-12-24T17:47:05.042Z,100814.53
2022-12-24T17:49:37.006Z,100817.00
2022-12-24T17:52:08.593Z,100812.69
2022-12-24T17:54:40.505Z,100822.53
2022-12-24T17:57:12.046Z,100817.84
2022-12-24T17:59:43.914Z,100818.06
2022-12-24T18:02:15.507Z,100819.72
2022-12-24T18:04:47.121Z,100830.31
2022-12-24T18:07:18.628Z,100838.91
2022-12-24T18:09:50.489Z,100831.97
2022-12-24T18:12:22.017Z,100849.53
2022-12-24T18:14:53.842Z,100841.53
2022-12-24T18:17:25.378Z,100842.56
2022-12-24T18:19:56.927Z,100846.22
2022-12-24T18:22:28.552Z,100847.88
2022-12-24T18:25:00.428Z,100857.47
2022-12-24T18:27:31.949Z,100859.25
2022-12-24T18:30:03.500Z,100849.44
2022-12-24T18:32:35.046Z,100851.06
2022-12-24T18:35:06.754Z,100854.09
2022-12-24T18:37:38.272Z,100864.31
2022-12-24T18:40:10.338Z,100854.16
2022-12-24T18:42:42.233Z,100856.84
2022-12-24T18:45:14.021Z,100862.38
2022-12-24T18:47:45.556Z,100867.72
2022-12-24T18:50:17.133Z,100875.47
2022-12-24T18:52:48.691Z,100879.56
2022-12-24T18:55:20.619Z,100884.06
2022-12-24T18:57:52.146Z,100881.16
2022-12-24T19:00:23.938Z,100885.06
2022-12-24T19:02:55.608Z,100885.47
2022-12-24T19:05:28.157Z,100894.03
2022-12-24T19:07:59.714Z,100890.34
2022-12-24T19:10:31.708Z,100894.59
2022-12-24T19:13:03.224Z,100892.13
2022-12-24T19:15:36.110Z,100897.00
2022-12-24T19:18:07.810Z,100903.72
2022-12-24T19:20:39.563Z,100897.53
2022-12-24T19:23:11.079Z,100898.56
2022-12-24T19:25:43.021Z,100898.94
2022-12-24T19:28:14.556Z,100899.97
2022-12-24T19:30:46.451Z,100898.47
2022-12-24T19:33:17.977Z,100899.50
2022-12-24T19:35:49.867Z,100893.38
2022-12-24T19:38:21.381Z,100900.50
2022-12-24T19:40:53.330Z,100899.50
2022-12-24T19:43:24.856Z,100914.03
2022-12-24T19:45:56.883Z,100915.88
2022-12-24T19:48:28.523Z,100917.50
2022-12-24T19:51:00.638Z,100923.44
2022-12-24T19:53:32.209Z,100752.69
2022-12-24T19:56:03.803Z,100929.28
2022-12-24T19:58:35.451Z,100928.66
2022-12-24T20:01:12.955Z,100932.31
2022-12-24T20:03:47.123Z,100922.91
2022-12-24T20:06:18.643Z,100914.09
2022-12-24T20:08:50.243Z,100917.75
2022-12-24T20:11:22.542Z,100926.72
2022-12-24T20:13:54.058Z,100924.69
2022-12-24T20:16:25.976Z,100924.31
2022-12-24T20:18:57.542Z,100933.28
2022-12-24T20:21:29.291Z,100922.66
2022-12-24T20:24:00.827Z,100933.28
2022-12-24T20:26:32.708Z,100938.38
2022-12-24T20:29:04.268Z,100939.59
2022-12-24T20:31:36.117Z,100931.25
2022-12-24T20:34:08.508Z,100934.16
2022-12-24T20:36:41.053Z,100937.38
2022-12-24T20:39:13.040Z,100941.47
2022-12-24T20:41:44.910Z,100939.59
2022-12-24T20:44:16.435Z,100937.75
2022-12-24T20:46:48.295Z,100942.88
2022-12-24T20:49:19.849Z,100950.19
2022-12-24T20:51:51.615Z,100956.50
2022-12-24T20:54:23.210Z,100962.00
2022-12-24T20:56:57.861Z,100958.53
2022-12-24T20:59:30.503Z,100959.34
2022-12-24T21:02:02.543Z,100966.72
2022-12-24T21:04:34.227Z,100970.63
2022-12-24T21:07:05.818Z,100962.88
2022-12-24T21:09:37.362Z,100972.47
2022-12-24T21:12:27.892Z,100963.50
2022-12-24T21:14:59.448Z,100972.16
2022-12-24T21:17:30.976Z,100972.50
2022-12-24T21:20:03.276Z,100976.19
2022-12-24T21:22:34.802Z,100975.13
2022-12-24T21:25:06.783Z,100978.97
2022-12-24T21:27:38.311Z,100987.53
2022-12-24T21:30:10.027Z,100986.91
2022-12-24T21:32:41.548Z,100988.38
2022-12-24T21:35:13.284Z,100987.53
2022-12-24T21:37:44.840Z,100985.09
2022-12-24T21:40:16.911Z,100992.22
2022-12-24T21:42:48.442Z,100998.91
2022-12-24T21:45:20.221Z,101000.56
2022-12-24T21:47:51.755Z,100998.47
2022-12-24T21:50:42.441Z,101006.22
2022-12-24T21:53:32.667Z,101006.69
2022-12-24T21:56:04.450Z,101013.16
2022-12-24T21:58:36.018Z,101016.19
2022-12-24T22:01:08.374Z,101029.25
2022-12-24T22:03:40.105Z,101029.00
2022-12-24T22:06:34.407Z,101031.47
2022-12-24T22:09:24.768Z,101032.09
2022-12-24T22:11:56.669Z,101043.09
2022-12-24T22:14:28.196Z,101038.22
2022-12-24T22:17:00.333Z,101036.34
2022-12-24T22:19:31.955Z,101038.16
2022-12-24T22:22:04.158Z,101043.19
2022-12-24T22:24:35.678Z,101042.63
2022-12-24T22:27:07.586Z,101049.78
2022-12-24T22:29:39.121Z,101050.59
2022-12-24T22:32:11.061Z,101051.78
2022-12-24T22:34:42.595Z,101045.66
2022-12-24T22:37:14.383Z,101049.78
2022-12-24T22:39:45.889Z,101055.69
2022-12-24T22:42:17.416Z,101060.56
2022-12-24T22:44:48.924Z,101069.97
2022-12-24T22:47:20.898Z,101065.66
2022-12-24T22:49:52.514Z,101071.16
2022-12-24T22:52:24.605Z,101075.75
2022-12-24T22:54:56.106Z,101075.13
2022-12-24T22:57:28.368Z,101082.31
2022-12-24T22:59:59.893Z,101084.16
2022-12-24T23:02:31.838Z,101083.31
2022-12-24T23:05:03.424Z,101088.19
2022-12-24T23:07:34.980Z,101086.91
2022-12-24T23:10:06.535Z,101092.56
2022-12-24T23:12:57.250Z,101091.66
2022-12-24T23:15:28.842Z,101094.88
2022-12-24T23:18:00.849Z,101094.75
2022-12-24T23:20:32.353Z,101090.66
2022-12-24T23:23:04.258Z,101091.84
2022-12-24T23:25:35.777Z,101093.84
2022-12-24T23:28:07.692Z,101097.03
2022-12-24T23:30:39.280Z,101098.78
2022-12-24T23:33:10.881Z,101092.38
2022-12-24T23:35:42.393Z,101096.56
2022-12-24T23:38:18.137Z,101096.75
2022-12-24T23:40:49.658Z,101099.59
2022-12-24T23:43:21.201Z,101093.47
2022-12-24T23:45:52.728Z,101094.63
2022-12-24T23:48:24.728Z,101094.97
2022-12-24T23:50:56.540Z,101086.56
2022-12-24T23:53:28.061Z,101079.81
2022-12-24T23:55:59.597Z,101090.94
2022-12-24T23:58:31.179Z,101093.94
